• Join FlightAware (Why Join?)
  • Login
  • US Flag 
03:34PM EDT


 

Airport Tracker/Info


-or-


 

Live Flight TrackerFlight Track Log ✈ SWA864 ✈ 18-May-2013 ✈ KMDW - KDEN

Flight Track Log - Related Links

Times and Time Zones

All times are in EDT time to prevent confusion due to time zone crossing. See the SWA864 flight status page for this flight to view local times or setup timezone preferences in your user account.

Time Position Orientation Groundspeed Altitude Reporting Facility
EDT Latitude Longitude Course Direction KTS MPH feet Rate Location/Type
10:27AM 41.7625 -87.9144 249° West 241 277 6,200  Level Chicago Center
10:28AM 41.7514 -88.0197 262° West 283 326 9,500 2,820 Climbing Chicago Center
10:29AM 41.7475 -88.1494 268° West 292 336 12,000 1,440 Climbing Chicago Center
10:30AM 41.7447 -88.2608 268° West 299 344 12,500 1,560 Climbing Chicago Center
10:31AM 41.7406 -88.3889 268° West 343 395 15,200 2,580 Climbing Chicago Center
10:32AM 41.7264 -88.6647 263° West  Level FlightAware Approximate
10:32AM 41.7619 -88.5239 282° West 373 429 17,900  Level Chicago Center
10:33AM 41.7853 -88.6611 283° West 380 437 20,600 2,700 Climbing Chicago Center
10:35AM 41.7778 -88.8406 267° West 408 470 23,500 2,580 Climbing Chicago Center
10:36AM 41.7769 -88.9936 270° West 414 476 25,900 2,100 Climbing Chicago Center
10:37AM 41.7714 -89.1494 267° West 420 483 27,900 1,740 Climbing Chicago Center
10:38AM 41.7572 -89.3100 263° West 435 501 29,600 1,620 Climbing Chicago Center
10:39AM 41.7442 -89.4733 264° West 444 511 31,300 1,620 Climbing Chicago Center
10:40AM 41.7283 -89.6481 263° West 447 514 33,000 1,500 Climbing Chicago Center
10:41AM 41.7139 -89.8131 263° West 449 517 34,500 1,560 Climbing Chicago Center
10:42AM 41.6989 -89.9772 263° West 446 513 36,200 1,500 Climbing Chicago Center
10:43AM 41.6850 -90.1397 264° West 444 511 37,600 840 Climbing Chicago Center
10:44AM 41.6647 -90.3381 262° West 453 521 38,000 180 Climbing Chicago Center
10:45AM 41.6500 -90.4986 263° West 441 507 38,000  Level Chicago Center
10:46AM 41.6364 -90.6433 263° West 439 505 38,000  Level Chicago Center
10:47AM 41.6197 -90.8031 262° West 437 503 38,000  Level Chicago Center
10:48AM 41.6019 -90.9972 263° West 441 507 38,000  Level Chicago Center
10:49AM 41.5856 -91.1567 262° West 438 504 38,000  Level Chicago Center
10:50AM 41.5681 -91.3181 262° West 440 506 38,000  Level Chicago Center
10:51AM 41.5517 -91.4806 262° West 443 510 38,000  Level Chicago Center
10:52AM 41.5347 -91.6433 262° West 444 511 38,000  Level Chicago Center
10:53AM 41.5175 -91.8053 262° West 443 510 38,000  Level Chicago Center
10:54AM 41.4958 -91.9994 262° West 444 511 38,000  Level Chicago Center
10:55AM 41.4786 -92.1597 262° West 441 507 38,000  Level Chicago Center
10:56AM 41.4597 -92.3225 261° West 446 513 38,000  Level Chicago Center
10:57AM 41.4417 -92.4839 262° West 441 507 38,000  Level Chicago Center
10:58AM 41.4233 -92.6417 261° West 438 504 38,000  Level Chicago Center
10:59AM 41.4133 -92.7350 262° West 437 503 38,000  Level Minneapolis Center
11:00AM 41.3914 -92.9217 261° West 433 498 38,000  Level Minneapolis Center
11:01AM 41.3733 -93.0783 261° West 433 498 38,000  Level Minneapolis Center
11:02AM 41.3547 -93.2331 261° West 431 496 38,000  Level Minneapolis Center
11:03AM 41.3356 -93.3864 261° West 428 493 38,000  Level Minneapolis Center
11:04AM 41.3192 -93.5453 262° West 432 497 38,000  Level Minneapolis Center
11:05AM 41.3139 -93.7083 268° West 440 506 38,000  Level Minneapolis Center
11:06AM 41.3075 -93.8725 267° West 444 511 38,000  Level Minneapolis Center
11:07AM 41.3000 -94.0667 267° West 445 512 38,000  Level Minneapolis Center
11:08AM 41.2928 -94.2381 267° West 451 519 38,000  Level Minneapolis Center
11:09AM 41.2844 -94.4028 266° West 450 518 38,000  Level Minneapolis Center
11:10AM 41.2742 -94.5672 265° West 447 514 38,000  Level Minneapolis Center
11:11AM 41.2653 -94.7311 266° West 446 513 38,000  Level Minneapolis Center
11:12AM 41.2556 -94.8961 266° West 447 514 38,000  Level Minneapolis Center
11:13AM 41.2456 -95.0603 265° West 447 514 38,000  Level Minneapolis Center
11:14AM 41.2367 -95.2236 266° West 445 512 38,000  Level Minneapolis Center
11:15AM 41.2261 -95.3869 265° West 443 510 38,000  Level Minneapolis Center
11:16AM 41.2133 -95.5836 265° West 445 512 38,000  Level Minneapolis Center
11:17AM 41.2053 -95.7306 266° West 444 511 38,000  Level Minneapolis Center
11:18AM 41.1950 -95.8942 265° West 445 512 38,000  Level Minneapolis Center
11:20AM 41.1711 -96.0873 265° West  Level FlightAware Approximate
11:20AM 41.1725 -96.2528 265° West 444 511 38,000  Level Minneapolis Center
11:21AM 41.1597 -96.4086 264° West 442 509 38,000  Level Minneapolis Center
11:22AM 41.1489 -96.5714 265° West 442 509 38,000  Level Minneapolis Center
11:23AM 41.1372 -96.7325 265° West 439 505 38,000  Level Minneapolis Center
11:24AM 41.1253 -96.8944 264° West 439 505 38,000  Level Minneapolis Center
11:25AM 41.1128 -97.0547 264° West 437 503 38,000  Level Minneapolis Center
11:26AM 41.0997 -97.2150 264° West 437 503 38,000  Level Minneapolis Center
11:27AM 41.0892 -97.3753 265° West 437 503 38,000  Level Minneapolis Center
11:28AM 41.0753 -97.5400 264° West 435 501 38,000  Level Minneapolis Center
11:29AM 41.0631 -97.6992 264° West 434 499 38,000  Level Minneapolis Center
11:31AM 41.0469 -97.8925 264° West 438 504 38,000  Level Minneapolis Center
11:32AM 41.0336 -98.0531 264° West 438 504 38,000  Level Minneapolis Center
11:33AM 41.0200 -98.2153 264° West 440 506 38,000  Level Minneapolis Center
11:34AM 41.0067 -98.3783 264° West 442 509 38,000  Level Minneapolis Center
11:35AM 40.9922 -98.5314 263° West 443 510 38,000  Level Minneapolis Center
11:36AM 40.9781 -98.6950 264° West 447 514 38,000  Level Minneapolis Center
11:37AM 40.9628 -98.8603 263° West 451 519 38,000  Level Minneapolis Center
11:38AM 40.9458 -99.0583 264° West 452 520 38,000  Level Minneapolis Center
11:39AM 40.9314 -99.2103 263° West 450 518 38,000  Level Minneapolis Center
11:39AM 40.9253 -99.2764 263° West 451 519 38,000  Level Denver Center
11:40AM 40.9092 -99.4411 263° West 450 518 38,000  Level Denver Center
11:41AM 40.8858 -99.6008 259° West 445 512 38,000  Level Denver Center
11:42AM 40.8628 -99.7603 259° West 443 510 38,000  Level Denver Center
11:43AM 40.8378 -99.9342 259° West 438 504 38,000  Level Denver Center
11:44AM 40.8156 -100.0844 259° West 436 502 38,000  Level Denver Center
11:45AM 40.7894 -100.2578 259° West 433 498 38,000  Level Denver Center
11:46AM 40.7681 -100.4075 259° West 431 496 38,000  Level Denver Center
11:47AM 40.7456 -100.5561 259° West 430 495 38,000  Level Denver Center
11:48AM 40.7172 -100.7342 258° West 436 502 38,000  Level Denver Center
11:49AM 40.6947 -100.8875 259° West 436 502 38,000  Level Denver Center
11:50AM 40.6731 -101.0361 259° West 430 495 38,000  Level Denver Center
11:51AM 40.6461 -101.2092 258° West 431 496 38,000  Level Denver Center
11:52AM 40.6217 -101.3575 258° West 431 496 38,000  Level Denver Center
11:53AM 40.5953 -101.5297 259° West 430 495 38,000  Level Denver Center
11:55AM 40.5722 -101.6783 259° West 433 498 38,000  Level Denver Center
11:56AM 40.5428 -101.8508 257° West 433 498 38,000  Level Denver Center
11:57AM 40.5167 -102.0225 259° West 429 494 38,000  Level Denver Center
11:58AM 40.4867 -102.1939 257° West 431 496 38,000  Level Denver Center
11:59AM 40.4667 -102.3172 258° West 432 497 38,000  Level Denver Center
12:00PM 40.4336 -102.5133 258° West 434 499 38,000  Level Denver Center
12:01PM 40.4131 -102.6372 258° West 437 503 38,000 -120 Level Denver Center
12:02PM 40.3800 -102.8322 258° West 430 495 37,800 -1,200 Descending Denver Center
12:03PM 40.3558 -102.9736 257° West 416 479 35,600 -2,640 Descending Denver Center
12:04PM 40.3264 -103.1386 257° West 416 479 32,400 -2,700 Descending Denver Center
12:05PM 40.3019 -103.2808 257° West 417 480 30,100 -2,220 Descending Denver Center
12:06PM 40.2772 -103.4156 257° West 404 465 27,900 -2,280 Descending Denver Center
12:07PM 40.2506 -103.5700 257° West 393 452 25,400 -2,220 Descending Denver Center
12:08PM 40.2281 -103.6992 257° West 385 443 23,400 -1,680 Descending Denver Center
12:09PM 40.2025 -103.8375 256° West 352 405 22,000 -1,260 Descending Denver Center
12:10PM 40.1619 -103.9347 241° Southwest 305 351 20,800 -1,200 Descending Denver Center
12:11PM 40.1258 -104.0139 239° Southwest 302 348 19,600 -1,560 Descending Denver Center
12:12PM 40.0742 -104.1256 239° Southwest 293 337 17,600 -1,320 Descending Denver Center
12:13PM 40.0306 -104.2189 239° Southwest 279 321 16,700 -1,020 Descending Denver Center
12:14PM 39.9939 -104.2992 239° Southwest 261 300 15,400 -1,260 Descending Denver Center
12:16PM 39.9456 -104.4011 238° Southwest 268 308 14,100 -1,200 Descending Denver Center
12:17PM 39.9089 -104.4800 239° Southwest 258 297 13,000 -1,200 Descending Denver Center
12:18PM 39.8408 -104.4997 193° South 245 282 11,700 -1,020 Descending Denver Center
12:19PM 39.7731 -104.5019 181° South 244 281 11,000 -1,380 Descending Denver Center
12:20PM 39.7000 -104.5056 182° South 244 281 8,900 -1,500 Descending Denver Center
12:21PM 39.6881 -104.5878 259° West 247 284 7,900 -840 Descending Denver Center
12:22PM 39.7347 -104.6258 328° Northwest 201 231 7,200 -780 Descending Denver Center
12:23PM 39.7811 -104.6431 344° North 166 191 6,400 -780 Descending Denver Center
12:24PM 39.8228 -104.6422 North 153 176 5,600 -780 Descending Denver Center
12:26PM 39.8500 -104.6667 North  Level FlightAware Approximate
12:33PM 39.8617 -104.6732 North  Level Estimated
12:34PM 39.8617 -104.6732 North  Level Estimated
12:35PM 39.8617 -104.6732 North  Level Estimated